Time;durP1;ratioP1;P1;durP2;ratioP2;P2;SDS_P1;SDS_P2;PMS_P1;PMS_P2;Temp;Humidity;BMP_temperature;BMP_pressure;BME280_temperature;BME280_humidity;BME280_pressure;Samples;Min_cycle;Max_cycle;Signal;HPM_P1;HPM_P2
2022/07/29 00:00:56;;;;;;;1.75;1.10;;;25.60;40.40;;;29.53;26.33;101782.50;5134151;28;20043;-12
2022/07/29 00:03:21;;;;;;;1.25;1.00;;;25.60;40.50;;;29.53;26.14;101796.81;5134238;28;20488;-12
2022/07/29 00:05:47;;;;;;;1.35;1.10;;;25.60;40.60;;;29.50;26.46;101782.75;5134589;28;20043;-11
2022/07/29 00:08:15;;;;;;;1.20;1.00;;;25.60;40.50;;;29.53;26.37;101793.28;5133924;28;20145;-11
2022/07/29 00:10:41;;;;;;;1.85;1.02;;;25.60;40.50;;;29.51;26.38;101792.56;5134158;28;20047;-12
2022/07/29 00:13:07;;;;;;;1.73;1.10;;;25.60;40.60;;;29.52;26.28;101794.25;5134538;28;20054;-12
2022/07/29 00:15:33;;;;;;;1.23;1.10;;;25.60;40.60;;;29.49;26.25;101783.75;5134409;28;20042;-12
2022/07/29 00:17:59;;;;;;;1.20;1.08;;;25.60;40.50;;;29.48;26.53;101777.50;5115725;28;20452;-12
2022/07/29 00:20:25;;;;;;;1.17;1.02;;;25.60;40.50;;;29.50;26.21;101782.75;5133901;28;20057;-11
2022/07/29 00:22:51;;;;;;;2.30;1.13;;;25.60;40.50;;;29.47;26.43;101775.81;5133997;28;20492;-12
2022/07/29 00:25:17;;;;;;;1.60;1.10;;;25.60;40.50;;;29.51;26.39;101781.78;5134329;28;20044;-12
2022/07/29 00:27:43;;;;;;;1.25;0.90;;;25.60;40.50;;;29.48;26.23;101773.97;5133880;28;20055;-11
2022/07/29 00:30:09;;;;;;;1.25;0.93;;;25.60;40.60;;;29.47;26.58;101772.22;5133276;27;20061;-12
2022/07/29 00:32:35;;;;;;;2.45;1.05;;;25.60;40.60;;;29.45;26.39;101769.66;5134511;28;20051;-12
2022/07/29 00:37:45;;;;;;;1.17;1.08;;;25.60;40.60;;;29.50;26.33;101774.69;5133910;28;20054;-12
2022/07/29 00:40:11;;;;;;;2.00;1.17;;;25.60;40.60;;;29.46;26.23;101765.16;5133701;28;20055;-12
2022/07/29 00:42:48;;;;;;;2.03;1.23;;;25.60;40.50;;;29.43;26.20;101757.31;5134082;28;20054;-12
2022/07/29 00:45:15;;;;;;;1.20;1.10;;;25.60;40.50;;;29.50;26.51;101761.19;5134359;28;20043;-12
2022/07/29 00:47:41;;;;;;;1.15;1.02;;;25.60;40.60;;;29.48;26.31;101768.56;5133601;28;20043;-12
2022/07/29 00:50:10;;;;;;;1.38;1.13;;;25.50;40.80;;;29.42;26.44;101755.59;5133716;28;20040;-11
2022/07/29 00:52:38;;;;;;;1.60;1.10;;;25.60;40.60;;;29.43;26.33;101754.63;5133607;28;20055;-12
2022/07/29 00:55:08;;;;;;;1.00;0.90;;;25.60;40.60;;;29.44;26.49;101757.19;5133614;28;20043;-12
2022/07/29 00:57:35;;;;;;;1.10;1.00;;;25.50;40.60;;;29.44;26.51;101753.66;5133794;28;20054;-12
2022/07/29 01:00:04;;;;;;;2.05;1.02;;;25.50;40.60;;;29.46;26.30;101757.06;5133430;28;20047;-12
2022/07/29 01:02:29;;;;;;;0.80;0.80;;;25.50;40.60;;;29.44;26.29;101753.66;5133476;28;20047;-11
2022/07/29 01:04:56;;;;;;;1.05;0.95;;;25.50;40.60;;;29.46;26.30;101755.22;5133711;28;20047;-12
2022/07/29 01:07:24;;;;;;;1.38;1.00;;;25.50;40.60;;;29.47;26.57;101759.63;5115164;28;20105;-12
2022/07/29 01:09:51;;;;;;;1.13;1.02;;;25.50;40.60;;;29.42;26.41;101744.81;5133184;28;20058;-11
2022/07/29 01:12:25;;;;;;;1.00;0.77;;;25.50;40.60;;;29.38;26.47;101739.69;5115369;28;20044;-12
2022/07/29 01:14:52;;;;;;;1.00;0.82;;;25.50;40.60;;;29.44;26.40;101742.88;5133759;28;20043;-12
2022/07/29 01:17:24;;;;;;;1.50;1.00;;;25.50;40.60;;;29.45;26.38;101745.41;5115396;28;20059;-12
2022/07/29 01:20:13;;;;;;;1.17;1.08;;;25.50;40.60;;;29.40;26.38;101725.25;5133277;28;20552;-12
2022/07/29 01:22:58;;;;;;;1.40;1.00;;;25.50;40.60;;;29.44;26.53;101741.03;5114929;28;20058;-12
2022/07/29 01:26:03;;;;;;;1.27;0.95;;;25.50;40.60;;;29.43;26.51;101725.84;5133286;28;20075;-12
2022/07/29 01:28:47;;;;;;;1.20;0.95;;;25.50;40.60;;;29.44;26.43;101732.94;5113714;28;20048;-12
2022/07/29 01:31:20;;;;;;;1.83;1.17;;;25.50;40.60;;;29.40;26.45;101726.09;5133248;28;20480;-12
2022/07/29 01:33:56;;;;;;;1.15;1.02;;;25.50;40.60;;;29.38;26.51;101725.38;5113876;28;20381;-12
2022/07/29 01:36:38;;;;;;;2.17;0.70;;;25.50;40.70;;;29.36;26.58;101720.13;5114638;28;20044;-12
2022/07/29 01:39:14;;;;;;;1.45;0.80;;;25.50;40.70;;;29.34;26.43;101714.00;5133020;28;20047;-12
2022/07/29 01:41:50;;;;;;;1.20;1.10;;;25.50;40.60;;;29.35;26.38;101706.78;5116027;28;20499;-12
2022/07/29 01:44:27;;;;;;;1.27;1.10;;;25.50;40.70;;;29.37;26.36;101710.22;5136632;28;20050;-12
2022/07/29 01:46:58;;;;;;;3.15;1.40;;;25.50;40.60;;;29.36;26.34;101713.88;5101525;28;20387;-12
2022/07/29 01:49:35;;;;;;;1.10;1.00;;;25.50;40.60;;;29.33;26.28;101709.59;5137262;28;20460;-12
2022/07/29 01:52:10;;;;;;;1.58;0.93;;;25.50;40.60;;;29.38;26.55;101707.38;5116904;28;20047;-11
2022/07/29 01:54:53;;;;;;;1.63;1.20;;;25.50;40.70;;;29.37;26.57;101710.22;5118075;28;20486;-12
2022/07/29 01:57:25;;;;;;;2.15;1.10;;;25.50;40.70;;;29.35;26.61;101702.25;5116986;28;20121;-12
2022/07/29 01:59:52;;;;;;;1.15;0.98;;;25.50;40.70;;;29.33;26.43;101696.13;5118002;28;20051;-12
2022/07/29 02:02:19;;;;;;;1.63;1.00;;;25.40;40.60;;;29.35;26.41;101694.19;5117950;28;20047;-12
2022/07/29 02:04:50;;;;;;;1.80;0.93;;;25.40;40.60;;;29.40;26.48;101709.09;5099768;28;20069;-12
2022/07/29 02:07:21;;;;;;;2.20;1.00;;;25.50;40.70;;;29.34;26.45;101695.16;5118534;28;20047;-12
2022/07/29 02:09:49;;;;;;;0.80;0.80;;;25.40;40.60;;;29.40;26.38;101695.63;5136504;28;20047;-12
2022/07/29 02:12:18;;;;;;;1.00;0.80;;;25.50;40.70;;;29.36;26.57;101695.03;5117725;28;20054;-11
2022/07/29 02:14:49;;;;;;;1.45;1.20;;;25.40;40.60;;;29.32;26.56;101685.47;5136098;28;20130;-12
2022/07/29 02:17:32;;;;;;;1.73;0.90;;;25.40;40.60;;;29.32;26.74;101691.75;5100593;28;20051;-12
2022/07/29 02:20:02;;;;;;;1.42;0.98;;;25.40;40.60;;;29.33;26.46;101687.22;5136003;28;20039;-12
2022/07/29 02:22:31;;;;;;;1.02;0.80;;;25.50;40.70;;;29.32;26.66;101685.47;5117539;28;20488;-12
2022/07/29 02:24:58;;;;;;;1.02;0.93;;;25.40;40.60;;;29.36;26.50;101692.34;5117491;28;20043;-12
2022/07/29 02:27:28;;;;;;;2.05;0.90;;;25.40;40.60;;;29.34;26.47;101689.78;5117775;28;20046;-12
2022/07/29 02:29:57;;;;;;;1.02;0.90;;;25.40;40.60;;;29.35;26.46;101686.09;5135794;28;20047;-11
2022/07/29 02:32:27;;;;;;;1.33;0.98;;;25.40;40.70;;;29.32;26.63;101680.09;5117461;28;20082;-11
2022/07/29 02:34:53;;;;;;;1.23;0.98;;;25.40;40.60;;;29.31;26.69;101681.09;5117387;28;20047;-11
2022/07/29 02:37:21;;;;;;;1.83;1.20;;;25.40;40.60;;;29.30;26.62;101679.38;5117318;28;20047;-12
2022/07/29 02:39:48;;;;;;;1.48;1.17;;;25.40;40.60;;;29.32;26.59;101683.66;5083426;28;20078;-12
2022/07/29 02:42:17;;;;;;;2.25;1.05;;;25.40;40.60;;;29.29;26.54;101666.91;5117219;28;20558;-12
2022/07/29 02:44:43;;;;;;;1.60;1.10;;;25.40;40.60;;;29.35;26.42;101688.78;5116643;28;20065;-12
2022/07/29 02:47:35;;;;;;;1.23;1.13;;;25.40;40.60;;;29.31;26.47;101681.94;5135297;28;20054;-12
2022/07/29 02:50:09;;;;;;;1.17;1.08;;;25.40;40.60;;;29.32;26.53;101680.09;5116411;28;20446;-12
2022/07/29 02:52:41;;;;;;;1.05;0.88;;;25.40;40.60;;;29.29;26.49;101667.75;5135227;27;20054;-12
2022/07/29 02:55:15;;;;;;;1.98;0.93;;;25.40;40.70;;;29.29;26.36;101666.91;5115675;28;20507;-12
2022/07/29 02:58:00;;;;;;;1.85;1.17;;;25.40;40.60;;;29.33;26.61;101681.81;5115582;28;20434;-12
2022/07/29 03:00:35;;;;;;;1.38;1.00;;;25.40;40.70;;;29.30;26.49;101672.19;5135326;28;20047;-12
2022/07/29 03:03:07;;;;;;;1.35;0.80;;;25.40;40.60;;;29.30;26.60;101664.09;5117384;28;20192;-12
2022/07/29 03:05:35;;;;;;;1.10;1.00;;;25.40;40.70;;;29.29;26.60;101665.06;5116984;28;20054;-12
2022/07/29 03:08:06;;;;;;;1.42;1.20;;;25.40;40.60;;;29.25;26.43;101657.38;5116801;28;20587;-12
2022/07/29 03:10:33;;;;;;;1.27;1.17;;;25.40;40.70;;;29.32;26.28;101663.94;5135247;28;20039;-12
2022/07/29 03:13:01;;;;;;;1.15;1.00;;;25.40;40.70;;;29.29;26.40;101665.06;5116837;28;20043;-12
2022/07/29 03:15:27;;;;;;;1.02;0.93;;;25.40;40.50;;;29.30;26.58;101664.09;5116747;28;20047;-12
2022/07/29 03:17:55;;;;;;;1.20;1.10;;;25.40;40.70;;;29.30;26.53;101665.91;5135384;28;20078;-12
2022/07/29 03:20:21;;;;;;;1.42;0.90;;;25.40;40.60;;;29.28;26.41;101660.66;5117228;28;20047;-12
2022/07/29 03:22:47;;;;;;;1.23;0.90;;;25.40;40.60;;;29.27;26.33;101658.09;5135377;28;21336;-11
2022/07/29 03:25:17;;;;;;;2.03;1.30;;;25.40;40.50;;;29.30;26.59;101666.78;5116542;28;20049;-12
2022/07/29 03:27:44;;;;;;;1.05;0.98;;;25.40;40.60;;;29.32;26.55;101658.56;5116809;28;20051;-12
2022/07/29 03:30:11;;;;;;;0.85;0.80;;;25.40;40.50;;;29.28;26.49;101666.03;5134912;28;20461;-12
2022/07/29 03:32:37;;;;;;;2.00;1.00;;;25.40;40.60;;;29.25;26.53;101650.13;5116675;28;20476;-12
2022/07/29 03:35:05;;;;;;;0.77;0.77;;;25.40;40.60;;;29.29;26.49;101656.16;5135195;28;20992;-12
2022/07/29 03:37:33;;;;;;;1.20;1.00;;;25.40;40.60;;;29.30;26.41;101655.13;5135013;28;20039;-12
2022/07/29 03:40:00;;;;;;;0.90;0.85;;;25.40;40.60;;;29.26;26.47;101648.31;5134896;28;20388;-12
2022/07/29 03:42:31;;;;;;;1.05;0.90;;;25.40;40.60;;;29.29;26.35;101654.28;5134610;28;20129;-12
2022/07/29 03:45:00;;;;;;;1.63;1.27;;;25.40;40.60;;;29.33;26.67;101652.19;5116315;28;20043;-12
2022/07/29 03:47:28;;;;;;;1.13;1.02;;;25.40;40.50;;;29.30;26.51;101656.00;5099128;28;20509;-12
2022/07/29 03:50:00;;;;;;;1.20;1.10;;;25.40;40.50;;;29.26;26.40;101648.31;5134546;28;20100;-12
2022/07/29 03:52:26;;;;;;;1.48;1.10;;;25.40;40.50;;;29.32;26.31;101648.66;5116635;28;20062;-12
2022/07/29 03:54:52;;;;;;;0.95;0.95;;;25.40;40.50;;;29.28;26.42;101644.50;5134535;28;20487;-12
2022/07/29 03:57:23;;;;;;;1.02;0.93;;;25.40;40.50;;;29.29;26.36;101648.06;5134178;28;20384;-12
2022/07/29 03:59:51;;;;;;;;;;;25.40;40.50;;;29.44;26.39;101653.97;5134979;28;20054;-12
2022/07/29 04:02:17;;;;;;;0.80;0.80;;;25.40;40.50;;;29.35;26.27;101653.78;5116055;28;19922;-12
2022/07/29 04:04:43;;;;;;;1.15;1.05;;;25.40;40.50;;;29.35;26.42;101656.47;5113340;28;20051;-12
2022/07/29 04:07:13;;;;;;;1.90;1.10;;;25.40;40.50;;;29.35;26.45;101669.06;5115721;28;20407;-12
2022/07/29 04:09:39;;;;;;;1.10;1.00;;;25.40;40.50;;;29.30;26.35;101656.00;5134182;28;20043;-12
2022/07/29 04:12:05;;;;;;;2.83;1.23;;;25.40;40.50;;;29.27;26.39;101648.19;5134147;28;20058;-12
2022/07/29 04:14:34;;;;;;;1.27;1.08;;;25.40;40.40;;;29.28;26.54;101649.88;5134311;28;20048;-12
2022/07/29 04:17:02;;;;;;;1.10;1.00;;;25.40;40.40;;;29.33;26.44;101654.88;5134180;28;20484;-12
2022/07/29 04:19:28;;;;;;;1.15;1.05;;;25.40;40.40;;;29.27;26.34;101653.56;5134431;28;20055;-12
2022/07/29 04:21:54;;;;;;;1.33;1.10;;;25.40;40.40;;;29.33;26.31;101655.72;5134338;28;20051;-12
2022/07/29 04:24:20;;;;;;;1.83;1.10;;;25.40;41.00;;;29.29;26.23;101646.22;5134095;28;20096;-12
2022/07/29 04:26:46;;;;;;;2.55;1.30;;;25.40;40.40;;;29.31;26.19;101654.16;5134358;28;20039;-12
2022/07/29 04:29:14;;;;;;;2.22;1.20;;;25.40;40.50;;;29.28;26.36;101644.50;5134262;28;20116;-12
2022/07/29 04:31:43;;;;;;;1.42;0.98;;;25.40;40.40;;;29.33;26.40;101652.19;5133953;28;20047;-12
2022/07/29 04:34:09;;;;;;;1.33;1.15;;;25.40;40.40;;;29.34;26.55;101653.91;5115523;28;20117;-11
2022/07/29 04:36:35;;;;;;;1.45;1.15;;;25.40;40.40;;;29.34;26.44;101648.53;5133802;28;20051;-12
2022/07/29 04:39:01;;;;;;;2.13;1.08;;;25.40;40.30;;;29.32;26.58;101648.66;5134232;28;20047;-12
2022/07/29 04:41:28;;;;;;;1.92;1.00;;;25.40;40.40;;;29.31;26.37;101646.09;5133868;28;20049;-12
2022/07/29 04:43:55;;;;;;;1.70;1.08;;;25.40;40.40;;;29.31;26.47;101646.09;5133795;28;20518;-12
2022/07/29 04:46:21;;;;;;;1.48;1.02;;;25.40;40.40;;;29.34;26.46;101652.06;5133760;28;20043;-12
2022/07/29 04:48:47;;;;;;;1.27;1.17;;;25.40;40.30;;;29.37;26.25;101659.03;5133632;28;20054;-12
2022/07/29 04:51:16;;;;;;;1.33;1.10;;;25.40;40.30;;;29.35;26.55;101648.38;5114665;28;20130;-11
2022/07/29 04:53:42;;;;;;;1.13;1.00;;;25.50;40.40;;;29.39;26.20;101654.38;5133506;28;20047;-12
2022/07/29 04:56:08;;;;;;;1.77;1.13;;;25.50;40.30;;;29.36;26.25;101652.78;5133958;28;20047;-12
2022/07/29 04:58:35;;;;;;;1.25;1.02;;;25.50;40.40;;;29.36;26.36;101651.94;5133388;28;20135;-12
2022/07/29 05:01:01;;;;;;;1.20;1.10;;;25.60;40.40;;;29.41;26.51;101663.16;5133849;28;20400;-12
2022/07/29 05:03:27;;;;;;;1.38;1.17;;;25.60;40.40;;;29.43;26.12;101655.78;5133195;28;20043;-12
2022/07/29 05:05:53;;;;;;;1.15;1.05;;;25.60;40.30;;;29.45;26.15;101659.19;5133454;28;20050;-12
2022/07/29 05:08:18;;;;;;;2.03;1.20;;;25.60;40.30;;;29.44;26.01;101656.66;5132899;28;20054;-12
2022/07/29 05:10:45;;;;;;;1.95;1.00;;;25.60;40.20;;;29.43;26.23;101661.19;5115183;28;20039;-12
2022/07/29 05:13:11;;;;;;;1.52;1.10;;;25.60;40.30;;;29.46;26.33;101660.09;5133361;28;20043;-12
2022/07/29 05:15:37;;;;;;;2.33;1.38;;;25.60;40.20;;;29.43;26.35;101653.09;5134412;27;20395;-12
2022/07/29 05:18:03;;;;;;;1.20;1.10;;;25.60;40.20;;;29.45;26.09;101659.19;5136981;28;20054;-11
2022/07/29 05:20:30;;;;;;;1.40;1.10;;;25.60;40.10;;;29.45;26.19;101653.81;5118651;28;20043;-12
2022/07/29 05:22:58;;;;;;;1.35;1.25;;;25.60;40.20;;;29.48;26.37;101656.25;5137246;28;20499;-12
2022/07/29 05:25:28;;;;;;;1.55;1.30;;;25.60;40.20;;;29.47;26.21;101651.00;5136890;28;20430;-12
2022/07/29 05:27:54;;;;;;;1.10;1.00;;;25.60;40.20;;;29.49;26.40;101659.81;5136811;28;20039;-12
2022/07/29 05:30:20;;;;;;;1.23;1.10;;;25.60;40.10;;;29.47;26.18;101662.66;5136521;28;20076;-12
2022/07/29 05:32:47;;;;;;;2.35;1.48;;;25.70;40.10;;;29.49;26.17;101665.22;5136785;28;20053;-12
2022/07/29 05:35:13;;;;;;;1.67;1.30;;;25.60;40.10;;;29.51;26.11;101668.63;5136730;28;20504;-12
2022/07/29 05:37:40;;;;;;;1.15;1.05;;;25.70;40.10;;;29.51;26.17;101664.06;5136724;28;20054;-12
2022/07/29 05:40:06;;;;;;;1.55;1.13;;;25.70;40.00;;;29.53;26.00;101661.25;5136656;28;20124;-12
2022/07/29 05:42:32;;;;;;;1.23;1.10;;;25.70;40.00;;;29.55;26.09;101659.25;5136713;28;20047;-12
2022/07/29 05:44:58;;;;;;;2.50;1.33;;;25.80;40.00;;;29.60;26.12;101670.50;5136540;28;20041;-11
2022/07/29 05:47:24;;;;;;;2.80;1.58;;;25.70;40.00;;;29.59;26.18;101665.25;5136532;28;20381;-11
2022/07/29 05:49:50;;;;;;;1.73;1.30;;;25.80;40.00;;;29.59;25.99;101676.03;5136330;28;20046;-12
2022/07/29 05:52:16;;;;;;;2.88;1.20;;;25.70;40.00;;;29.61;26.13;101674.91;5136575;28;20039;-12
2022/07/29 05:54:42;;;;;;;1.48;1.27;;;25.70;40.00;;;29.60;25.94;101672.34;5136426;28;20171;-12
2022/07/29 05:57:09;;;;;;;1.50;1.20;;;25.80;40.00;;;29.63;25.96;101672.94;5136296;28;20039;-12
2022/07/29 05:59:38;;;;;;;1.70;1.20;;;25.80;39.80;;;29.69;25.81;101668.88;5116112;28;20055;-12
2022/07/29 06:02:05;;;;;;;2.90;1.35;;;25.90;39.80;;;29.74;25.97;101677.41;5136335;28;20074;-12
2022/07/29 06:04:32;;;;;;;1.63;1.17;;;25.90;39.70;;;29.71;25.70;101664.19;5136283;28;20051;-12
2022/07/29 06:06:58;;;;;;;1.55;1.10;;;26.00;39.80;;;29.74;25.85;101659.38;5136204;28;20043;-12
2022/07/29 06:09:23;;;;;;;1.33;1.20;;;25.90;39.70;;;29.75;25.98;101666.50;5136051;28;20046;-12
2022/07/29 06:11:49;;;;;;;1.75;1.30;;;26.00;39.70;;;29.82;25.74;101671.38;5136121;28;20047;-12
2022/07/29 06:14:15;;;;;;;1.30;1.20;;;26.00;39.70;;;29.82;25.73;101664.16;5136031;28;20043;-12
2022/07/29 06:16:42;;;;;;;2.20;1.35;;;26.10;39.60;;;29.83;25.82;101657.75;5136416;28;20067;-12
2022/07/29 06:19:08;;;;;;;1.30;1.13;;;26.10;39.50;;;29.89;25.54;101668.00;5135904;28;20070;-12
2022/07/29 06:21:34;;;;;;;1.85;1.33;;;26.10;39.50;;;29.92;25.75;101669.56;5136048;28;20039;-12
2022/07/29 06:24:00;;;;;;;2.17;1.20;;;26.10;40.00;;;29.96;25.79;101667.47;5136515;28;20108;-12
2022/07/29 06:26:26;;;;;;;2.35;1.45;;;26.20;39.50;;;29.96;25.72;101662.09;5135935;28;20388;-12
2022/07/29 06:28:51;;;;;;;1.25;1.10;;;26.20;39.40;;;29.99;25.62;101659.09;5134964;27;20077;-12
2022/07/29 06:31:17;;;;;;;1.30;1.20;;;26.20;39.50;;;30.00;25.59;101667.03;5135541;28;20063;-12
2022/07/29 06:33:43;;;;;;;2.00;1.23;;;26.20;39.40;;;30.02;25.67;101662.41;5135997;28;20058;-12
2022/07/29 06:36:09;;;;;;;1.98;1.60;;;26.20;39.50;;;30.05;25.60;101663.94;5135770;28;20449;-12
2022/07/29 06:38:34;;;;;;;2.72;1.23;;;26.20;39.40;;;30.02;25.54;101656.13;5135780;28;20461;-12
2022/07/29 06:41:05;;;;;;;1.30;1.20;;;26.20;39.40;;;30.05;25.58;101664.78;5135963;28;20051;-12
2022/07/29 06:43:37;;;;;;;2.00;1.58;;;26.30;39.40;;;30.08;25.64;101655.59;5136020;28;20066;-12
2022/07/29 06:46:10;;;;;;;2.28;1.70;;;26.30;39.40;;;30.13;25.62;101656.03;5135921;28;20078;-12
2022/07/29 06:48:37;;;;;;;1.42;1.30;;;26.30;39.30;;;30.12;25.40;101659.72;5135547;28;20054;-11
2022/07/29 06:51:04;;;;;;;3.85;1.27;;;26.30;39.40;;;30.14;25.61;101668.53;5115521;28;20051;-18
2022/07/29 06:53:31;;;;;;;1.90;1.50;;;26.30;39.40;;;30.14;25.64;101673.94;5115048;28;20052;-12
2022/07/29 06:55:59;;;;;;;1.92;1.13;;;26.30;40.00;;;30.14;25.45;101660.44;5135471;28;20058;-12
2022/07/29 06:58:26;;;;;;;1.60;1.20;;;26.30;39.50;;;30.14;25.44;101665.84;5135342;28;20063;-12
2022/07/29 07:00:56;;;;;;;1.20;1.10;;;26.30;39.50;;;30.12;25.56;101654.31;5135491;28;20055;-12
2022/07/29 07:03:22;;;;;;;1.92;1.38;;;26.30;39.50;;;30.18;25.41;101655.63;5135376;28;20039;-12
2022/07/29 07:05:48;;;;;;;1.83;1.35;;;26.30;39.40;;;30.15;25.45;101648.66;5135346;28;20051;-12
2022/07/29 07:08:19;;;;;;;1.42;1.30;;;26.30;39.40;;;30.14;25.45;101646.09;5135176;28;20054;-12
2022/07/29 07:10:45;;;;;;;3.05;1.13;;;26.30;39.40;;;30.18;25.56;101640.28;5135274;28;20047;-12
2022/07/29 07:13:11;;;;;;;1.30;1.20;;;26.40;39.40;;;30.20;25.42;101641.00;5135238;28;20047;-12
2022/07/29 07:15:37;;;;;;;1.92;1.52;;;26.40;39.30;;;30.20;25.46;101650.94;5135151;28;20571;-12
2022/07/29 07:18:05;;;;;;;2.20;1.30;;;26.40;39.40;;;30.20;25.50;101648.25;5135125;28;20046;-11
2022/07/29 07:20:35;;;;;;;3.65;1.17;;;26.40;39.40;;;30.19;25.38;101643.81;5135696;28;20062;-12
2022/07/29 07:23:01;;;;;;;2.20;1.40;;;26.40;39.40;;;30.21;25.42;101653.50;5135117;28;20399;-12
2022/07/29 07:25:27;;;;;;;1.88;1.48;;;26.30;39.40;;;30.21;25.47;101636.47;5135040;28;20047;-12
2022/07/29 07:27:53;;;;;;;1.80;1.38;;;26.30;39.40;;;30.19;25.42;101633.91;5135263;28;20058;-12
2022/07/29 07:30:18;;;;;;;2.15;1.30;;;26.30;39.40;;;30.21;25.40;101640.00;5134838;28;20072;-12
2022/07/29 07:32:44;;;;;;;1.48;1.33;;;26.30;39.40;;;30.21;25.27;101641.88;5135236;28;20134;-11
2022/07/29 07:35:11;;;;;;;1.35;1.00;;;26.30;39.50;;;30.21;25.65;101642.72;5134974;28;20082;-12
2022/07/29 07:37:37;;;;;;;1.65;1.30;;;26.30;39.50;;;30.19;25.51;101638.44;5134852;28;20055;-12
2022/07/29 07:40:04;;;;;;;3.85;1.42;;;26.30;39.60;;;30.20;25.54;101640.16;5133582;27;20130;-12
2022/07/29 07:42:30;;;;;;;1.73;1.63;;;26.30;39.60;;;30.20;25.55;101630.22;5134716;28;20062;-12
2022/07/29 07:44:56;;;;;;;2.53;1.50;;;26.30;39.60;;;30.20;25.51;101634.75;5134705;28;20106;-12
2022/07/29 07:47:23;;;;;;;1.40;1.30;;;26.30;39.60;;;30.15;25.48;101629.78;5134490;28;20041;-12
2022/07/29 07:49:52;;;;;;;2.05;1.30;;;26.30;39.60;;;30.14;25.53;101633.47;5134598;28;20096;-12
2022/07/29 07:52:20;;;;;;;1.55;1.15;;;26.30;39.60;;;30.17;25.61;101635.03;5134813;28;20138;-12
2022/07/29 07:54:47;;;;;;;1.98;1.27;;;26.30;39.60;;;30.20;25.54;101638.31;5134616;28;20051;-11
2022/07/29 07:57:14;;;;;;;1.52;1.30;;;26.30;39.60;;;30.21;25.65;101634.63;5134779;28;20043;-12
2022/07/29 07:59:40;;;;;;;1.63;1.20;;;26.30;39.50;;;30.20;25.49;101626.66;5134457;28;20058;-12
2022/07/29 08:02:06;;;;;;;1.58;1.38;;;26.40;39.50;;;30.24;25.41;101649.69;5116284;28;20400;-12
2022/07/29 08:04:33;;;;;;;2.17;1.83;;;26.40;39.50;;;30.21;25.42;101633.78;5134340;28;20058;-12
2022/07/29 08:07:01;;;;;;;2.08;1.50;;;26.40;39.40;;;30.26;25.22;101629.66;5134295;28;20054;-12
2022/07/29 08:09:29;;;;;;;1.98;1.40;;;26.50;39.40;;;30.26;25.37;101626.97;5134274;28;20049;-11
2022/07/29 08:11:55;;;;;;;1.77;1.40;;;26.50;39.40;;;30.27;25.45;101627.81;5115913;28;20039;-12
2022/07/29 08:14:21;;;;;;;1.33;1.23;;;26.50;39.30;;;30.34;25.57;101634.38;5134293;28;20396;-12
2022/07/29 08:16:47;;;;;;;1.50;1.40;;;26.50;39.30;;;30.35;25.31;101619.03;5134406;28;20043;-12
2022/07/29 08:19:13;;;;;;;2.33;1.55;;;26.60;39.20;;;30.41;25.64;101622.06;5116319;28;20043;-12
2022/07/29 08:21:39;;;;;;;2.30;1.42;;;26.60;39.10;;;30.45;25.13;101623.47;5115714;28;20121;-12
2022/07/29 08:26:50;;;;;;;1.80;1.50;;;26.80;39.00;;;30.56;25.16;101616.28;5134035;28;20051;-12
2022/07/29 08:29:16;;;;;;;2.00;1.58;;;26.80;38.80;;;30.59;25.13;101610.56;5133907;28;20173;-12
2022/07/29 08:31:42;;;;;;;1.55;1.30;;;26.90;38.80;;;30.66;25.07;101620.66;5133998;28;20051;-12
2022/07/29 08:34:08;;;;;;;1.60;1.33;;;26.90;38.80;;;30.64;25.10;101611.03;5133922;28;20047;-12
2022/07/29 08:36:34;;;;;;;2.05;1.60;;;26.90;39.40;;;30.67;25.02;101611.59;5134136;28;20057;-11
2022/07/29 08:39:02;;;;;;;2.65;1.92;;;26.90;38.80;;;30.72;25.09;101627.34;5133927;28;20134;-11
2022/07/29 08:41:29;;;;;;;1.67;1.13;;;26.90;38.90;;;30.70;24.96;101618.53;5096853;28;20043;-12
2022/07/29 08:43:55;;;;;;;1.30;1.20;;;26.90;38.90;;;30.71;25.06;101620.25;5133811;28;20043;-12
2022/07/29 08:46:22;;;;;;;2.58;1.50;;;26.90;38.90;;;30.73;25.10;101620.97;5133879;28;20078;-11
2022/07/29 08:48:48;;;;;;;2.25;1.40;;;26.90;39.00;;;30.75;24.81;101628.91;5133456;28;20082;-12
2022/07/29 08:51:17;;;;;;;1.70;1.30;;;26.90;39.00;;;30.72;25.08;101621.09;5133074;27;20043;-11
2022/07/29 08:53:44;;;;;;;2.72;1.50;;;26.90;39.00;;;30.71;25.00;101622.94;5133556;28;20103;-11
2022/07/29 08:56:18;;;;;;;1.73;1.50;;;26.90;39.00;;;30.70;25.03;101620.38;5133451;28;20050;-12
2022/07/29 08:58:46;;;;;;;2.33;1.35;;;26.80;39.00;;;30.74;25.07;101625.38;5133446;28;20082;-11
2022/07/29 09:01:16;;;;;;;2.67;1.63;;;26.80;39.00;;;30.71;24.98;101614.84;5114075;28;20105;-12
2022/07/29 09:03:45;;;;;;;2.20;1.40;;;26.80;39.10;;;30.70;24.93;101615.84;5133523;28;20066;-12
2022/07/29 09:06:17;;;;;;;2.22;1.80;;;26.80;39.20;;;30.69;25.17;101615.97;5133582;28;20066;-12
2022/07/29 09:08:44;;;;;;;1.65;1.40;;;26.70;39.20;;;30.61;25.17;101612.16;5114160;28;20056;-11
2022/07/29 09:11:13;;;;;;;1.80;1.33;;;26.70;39.30;;;30.65;25.16;101616.25;5112563;28;20062;-12
2022/07/29 09:13:39;;;;;;;1.95;1.58;;;26.70;39.30;;;30.58;25.03;101606.19;5112793;28;20051;-12
2022/07/29 09:16:06;;;;;;;1.80;1.50;;;26.60;39.20;;;30.62;25.15;101621.09;5112655;28;20070;-11
2022/07/29 09:18:34;;;;;;;2.33;1.50;;;26.60;39.30;;;30.58;25.25;101612.41;5112524;28;20047;-12
2022/07/29 09:24:11;;;;;;;2.30;1.48;;;26.60;39.40;;;30.54;25.22;101619.09;5097541;28;20062;-12
2022/07/29 09:26:40;;;;;;;1.92;1.38;;;26.60;39.50;;;30.50;25.30;101606.03;5112696;28;20507;-12
2022/07/29 09:29:11;;;;;;;2.10;1.33;;;26.60;39.60;;;30.46;25.23;101600.06;5112005;28;20047;-12
2022/07/29 09:31:47;;;;;;;2.50;1.65;;;26.50;39.50;;;30.45;25.43;101596.50;5112705;28;20054;-12
2022/07/29 09:34:21;;;;;;;1.60;1.50;;;26.50;39.60;;;30.44;25.56;101597.50;5112965;28;20091;-12
2022/07/29 09:36:49;;;;;;;1.25;1.15;;;26.50;39.60;;;30.47;25.43;101608.03;5112817;28;20043;-11
2022/07/29 09:39:27;;;;;;;1.77;1.40;;;26.50;39.70;;;30.44;25.40;101600.19;5112449;28;20055;-12
2022/07/29 09:41:57;;;;;;;2.22;1.30;;;26.50;39.70;;;30.42;25.42;101601.31;5112457;28;20113;-11
2022/07/29 09:44:24;;;;;;;1.55;1.40;;;26.50;39.70;;;30.41;25.52;101605.03;5112889;28;20122;-11
2022/07/29 09:47:08;;;;;;;2.15;1.30;;;26.50;39.70;;;30.43;25.50;101611.97;5112544;28;20048;-11
2022/07/29 09:49:36;;;;;;;1.65;1.45;;;26.50;39.70;;;30.40;25.46;101606.84;5112310;28;20098;-12
2022/07/29 09:52:06;;;;;;;1.98;1.50;;;26.50;39.70;;;30.43;25.46;101606.56;5112194;28;20048;-12
2022/07/29 09:54:36;;;;;;;1.50;1.30;;;26.50;39.70;;;30.44;25.54;101610.16;5112478;28;20058;-12
2022/07/29 09:57:09;;;;;;;1.48;1.25;;;26.50;39.60;;;30.40;25.37;101606.84;5112759;28;20044;-11
2022/07/29 09:59:35;;;;;;;1.90;1.60;;;26.50;39.60;;;30.39;25.32;101602.47;5112319;28;20052;-11
2022/07/29 10:02:01;;;;;;;2.72;1.70;;;26.50;39.60;;;30.39;25.58;101607.88;5112361;28;20054;-12
2022/07/29 10:04:38;;;;;;;2.13;1.45;;;26.50;39.60;;;30.36;25.72;101607.25;5115811;28;20051;-11
2022/07/29 10:07:05;;;;;;;1.98;1.40;;;26.50;39.70;;;30.39;25.51;101613.25;5116048;28;20408;-12
2022/07/29 10:09:32;;;;;;;1.63;1.35;;;26.50;39.70;;;30.36;25.52;101607.25;5115645;28;20122;-12
2022/07/29 10:12:05;;;;;;;1.63;1.40;;;26.50;39.70;;;30.38;25.56;101605.31;5115909;28;20070;-11
2022/07/29 10:14:34;;;;;;;2.13;1.30;;;26.50;39.80;;;30.38;25.47;101603.44;5115624;28;20047;-12
2022/07/29 10:17:03;;;;;;;1.55;1.40;;;26.50;39.70;;;30.38;25.52;101598.06;5115579;28;20499;-12
2022/07/29 10:19:31;;;;;;;3.33;1.40;;;26.50;39.70;;;30.37;25.47;101590.97;5115250;28;20055;-11
2022/07/29 10:22:02;;;;;;;2.35;1.50;;;26.50;39.70;;;30.39;25.48;101602.47;5115582;28;20040;-12
2022/07/29 10:24:31;;;;;;;1.83;1.60;;;26.50;39.70;;;30.39;25.47;101597.06;5115859;28;20044;-12
2022/07/29 10:27:00;;;;;;;3.53;1.65;;;26.50;39.70;;;30.39;25.48;101588.97;5115404;28;20062;-12